Time;durP1;ratioP1;P1;durP2;ratioP2;P2;SDS_P1;SDS_P2;PMS_P1;PMS_P2;Temp;Humidity;BMP_temperature;BMP_pressure;BME280_temperature;BME280_humidity;BME280_pressure;Samples;Min_cycle;Max_cycle;Signal;HPM_P1;HPM_P2
2021/03/24 00:00:59;;;;;;;25.90;18.47;;;;;;;;;;6130077;23;20409;-77
2021/03/24 00:03:25;;;;;;;25.87;18.87;;;;;;;;;;6129608;23;20252;-76
2021/03/24 00:05:52;;;;;;;28.00;19.83;;;;;;;;;;6130668;23;20181;-77
2021/03/24 00:08:19;;;;;;;30.60;18.87;;;;;;;;;;6129783;23;20563;-76
2021/03/24 00:10:45;;;;;;;29.17;18.40;;;;;;;;;;6129374;23;20186;-77
2021/03/24 00:13:12;;;;;;;26.27;17.67;;;;;;;;;;6130031;23;20170;-77
2021/03/24 00:15:38;;;;;;;24.83;18.37;;;;;;;;;;6129498;23;20181;-77
2021/03/24 00:18:05;;;;;;;28.20;17.93;;;;;;;;;;6129856;23;20178;-77
2021/03/24 00:20:32;;;;;;;27.47;18.80;;;;;;;;;;6129979;23;20180;-77
2021/03/24 00:22:59;;;;;;;25.00;18.73;;;;;;;;;;6129984;23;20193;-77
2021/03/24 00:25:26;;;;;;;25.77;17.50;;;;;;;;;;6130096;23;20185;-77
2021/03/24 00:27:52;;;;;;;25.93;17.77;;;;;;;;;;6130156;23;20174;-77
2021/03/24 00:30:21;;;;;;;22.07;16.57;;;;;;;;;;6129837;23;20181;-77
2021/03/24 00:32:47;;;;;;;27.97;17.43;;;;;;;;;;6130588;23;20177;-77
2021/03/24 00:35:13;;;;;;;25.83;18.07;;;;;;;;;;6129534;23;20544;-77
2021/03/24 00:37:40;;;;;;;23.73;18.73;;;;;;;;;;6129794;23;20181;-77
2021/03/24 00:40:07;;;;;;;26.57;18.37;;;;;;;;;;6129740;23;20421;-77
2021/03/24 00:42:33;;;;;;;25.53;17.70;;;;;;;;;;6129981;23;20197;-77
2021/03/24 00:44:59;;;;;;;27.17;18.57;;;;;;;;;;6129624;23;20178;-77
2021/03/24 00:47:26;;;;;;;27.40;17.13;;;;;;;;;;6130253;23;20185;-77
2021/03/24 00:49:52;;;;;;;25.13;18.10;;;;;;;;;;6128909;23;20583;-77
2021/03/24 00:52:18;;;;;;;24.43;17.67;;;;;;;;;;6129790;23;20174;-77
2021/03/24 00:54:44;;;;;;;24.03;16.73;;;;;;;;;;6129600;23;20182;-77
2021/03/24 00:57:11;;;;;;;25.30;18.23;;;;;;;;;;6129785;23;20174;-77
2021/03/24 00:59:37;;;;;;;28.13;18.57;;;;;;;;;;6129553;23;20178;-77
2021/03/24 01:02:03;;;;;;;25.80;18.20;;;;;;;;;;6129524;23;20173;-77
2021/03/24 01:04:30;;;;;;;24.23;17.27;;;;;;;;;;6129318;23;20185;-77
2021/03/24 01:06:56;;;;;;;24.37;17.13;;;;;;;;;;6129908;23;20178;-77
2021/03/24 01:09:22;;;;;;;25.70;16.87;;;;;;;;;;6129788;23;20185;-77
2021/03/24 01:11:49;;;;;;;21.30;16.00;;;;;;;;;;6129252;23;20548;-77
2021/03/24 01:14:15;;;;;;;22.90;15.20;;;;;;;;;;6129344;23;20174;-77
2021/03/24 01:16:41;;;;;;;25.80;15.63;;;;;;;;;;6128999;23;20209;-76
2021/03/24 01:19:07;;;;;;;21.63;15.13;;;;;;;;;;6129541;23;20205;-77
2021/03/24 01:21:34;;;;;;;22.47;15.67;;;;;;;;;;6128460;23;20548;-77
2021/03/24 01:24:00;;;;;;;21.47;15.37;;;;;;;;;;6129498;23;20190;-77
2021/03/24 01:26:26;;;;;;;22.00;15.13;;;;;;;;;;6128866;23;20174;-78
2021/03/24 01:28:58;;;;;;;24.40;15.43;;;;;;;;;;6129285;23;20181;-77
2021/03/24 01:31:25;;;;;;;24.40;15.87;;;;;;;;;;6129014;23;20181;-77
2021/03/24 01:33:51;;;;;;;25.97;15.47;;;;;;;;;;6128872;23;20177;-77
2021/03/24 01:36:17;;;;;;;26.70;16.33;;;;;;;;;;6102593;23;20205;-77
2021/03/24 01:38:44;;;;;;;20.30;14.80;;;;;;;;;;6129757;23;20181;-77
2021/03/24 01:41:10;;;;;;;24.27;15.67;;;;;;;;;;6103253;23;20174;-77
2021/03/24 01:43:37;;;;;;;23.53;16.27;;;;;;;;;;6129106;23;20452;-77
2021/03/24 01:46:18;;;;;;;22.97;16.07;;;;;;;;;;6127917;23;20174;-77
2021/03/24 01:48:44;;;;;;;23.93;15.43;;;;;;;;;;6103627;23;20243;-77
2021/03/24 01:51:10;;;;;;;21.10;15.50;;;;;;;;;;6129059;23;20174;-78
2021/03/24 01:53:38;;;;;;;21.80;15.30;;;;;;;;;;6129376;23;20173;-77
2021/03/24 01:56:05;;;;;;;19.57;13.97;;;;;;;;;;6128586;23;20390;-78
2021/03/24 01:58:31;;;;;;;19.83;14.27;;;;;;;;;;6129359;23;20174;-77
2021/03/24 02:00:58;;;;;;;23.37;14.73;;;;;;;;;;6128588;23;20440;-77
2021/03/24 02:03:24;;;;;;;19.33;14.77;;;;;;;;;;6129015;23;20186;-76
2021/03/24 02:05:51;;;;;;;23.80;15.60;;;;;;;;;;6128585;23;20184;-76
2021/03/24 02:08:20;;;;;;;22.47;15.27;;;;;;;;;;6129455;23;20185;-77
2021/03/24 02:10:48;;;;;;;22.23;14.23;;;;;;;;;;6128560;23;20178;-76
2021/03/24 02:13:18;;;;;;;23.33;14.77;;;;;;;;;;6128782;23;20181;-76
2021/03/24 02:15:47;;;;;;;19.77;13.93;;;;;;;;;;6128723;23;20174;-76
2021/03/24 02:18:14;;;;;;;20.93;14.00;;;;;;;;;;6129289;23;20181;-76
2021/03/24 02:20:43;;;;;;;21.20;14.13;;;;;;;;;;6128120;23;20178;-76
2021/03/24 02:23:15;;;;;;;20.73;14.10;;;;;;;;;;6128731;23;20563;-76
2021/03/24 02:25:43;;;;;;;23.17;14.67;;;;;;;;;;6128643;23;20181;-76
2021/03/24 02:28:12;;;;;;;19.93;14.07;;;;;;;;;;6128644;23;20174;-76
2021/03/24 02:30:39;;;;;;;19.47;14.27;;;;;;;;;;6129048;23;20154;-76
2021/03/24 02:33:08;;;;;;;19.77;14.23;;;;;;;;;;6128788;23;20174;-77
2021/03/24 02:35:36;;;;;;;20.20;13.67;;;;;;;;;;6128866;23;20249;-77
2021/03/24 02:38:04;;;;;;;18.80;14.43;;;;;;;;;;6128561;23;20240;-76
2021/03/24 02:40:31;;;;;;;20.43;14.07;;;;;;;;;;6128619;23;20178;-77
2021/03/24 02:42:58;;;;;;;18.90;13.60;;;;;;;;;;6127904;23;20190;-77
2021/03/24 02:45:26;;;;;;;23.47;14.57;;;;;;;;;;6128492;23;20181;-77
2021/03/24 02:47:52;;;;;;;19.43;13.33;;;;;;;;;;6127883;23;20174;-76
2021/03/24 02:50:19;;;;;;;19.13;13.73;;;;;;;;;;6128459;23;20174;-76
2021/03/24 02:52:46;;;;;;;19.67;13.93;;;;;;;;;;6128855;23;20178;-76
2021/03/24 02:55:14;;;;;;;17.03;13.80;;;;;;;;;;6128194;23;20185;-78
2021/03/24 02:57:40;;;;;;;18.60;13.57;;;;;;;;;;6128369;23;20174;-76
2021/03/24 03:00:08;;;;;;;23.17;13.53;;;;;;;;;;6129202;23;20432;-76
2021/03/24 03:02:37;;;;;;;19.10;12.90;;;;;;;;;;6128152;23;20201;-77
2021/03/24 03:05:05;;;;;;;19.77;13.33;;;;;;;;;;6129110;23;20492;-76
2021/03/24 03:07:33;;;;;;;17.67;12.83;;;;;;;;;;6128417;23;20174;-78
2021/03/24 03:10:02;;;;;;;18.20;12.93;;;;;;;;;;6128932;23;20174;-78
2021/03/24 03:12:32;;;;;;;18.80;11.67;;;;;;;;;;6127353;23;20181;-77
2021/03/24 03:14:59;;;;;;;19.27;13.03;;;;;;;;;;6128715;23;20181;-77
2021/03/24 03:17:27;;;;;;;18.60;13.03;;;;;;;;;;6127957;23;20213;-78
2021/03/24 03:19:57;;;;;;;22.60;15.03;;;;;;;;;;6128826;23;20579;-77
2021/03/24 03:22:26;;;;;;;30.97;19.90;;;;;;;;;;6129657;23;20174;-77
2021/03/24 03:24:56;;;;;;;45.83;25.17;;;;;;;;;;6130366;23;20174;-77
2021/03/24 03:27:24;;;;;;;46.80;25.37;;;;;;;;;;6130347;23;20189;-77
2021/03/24 03:29:51;;;;;;;41.57;22.83;;;;;;;;;;6130377;23;20554;-75
2021/03/24 03:32:18;;;;;;;35.13;20.57;;;;;;;;;;6130333;23;20181;-76
2021/03/24 03:34:46;;;;;;;24.30;14.93;;;;;;;;;;6130470;23;20436;-76
2021/03/24 03:37:14;;;;;;;18.70;13.30;;;;;;;;;;6129699;23;20178;-76
2021/03/24 03:39:40;;;;;;;16.40;12.30;;;;;;;;;;6130196;23;20185;-77
2021/03/24 03:42:07;;;;;;;15.20;11.57;;;;;;;;;;6130229;23;20178;-76
2021/03/24 03:44:34;;;;;;;18.70;12.07;;;;;;;;;;6130372;23;20190;-77
2021/03/24 03:47:04;;;;;;;16.03;11.77;;;;;;;;;;6129766;23;20177;-76
2021/03/24 03:49:30;;;;;;;17.17;12.00;;;;;;;;;;6129872;23;20181;-76
2021/03/24 03:52:03;;;;;;;16.57;11.93;;;;;;;;;;6130248;23;20587;-76
2021/03/24 03:54:33;;;;;;;18.43;12.73;;;;;;;;;;6129686;23;20173;-76
2021/03/24 03:57:01;;;;;;;34.23;16.93;;;;;;;;;;6130067;23;20185;-77
2021/03/24 03:59:29;;;;;;;50.87;21.90;;;;;;;;;;6130263;23;20178;-76
2021/03/24 04:01:59;;;;;;;68.67;27.30;;;;;;;;;;6129849;23;20182;-76
2021/03/24 04:04:28;;;;;;;31.57;16.20;;;;;;;;;;6129655;23;20430;-76
2021/03/24 04:06:56;;;;;;;32.93;16.07;;;;;;;;;;6130145;23;20525;-76
2021/03/24 04:09:22;;;;;;;26.50;15.10;;;;;;;;;;6129841;23;20428;-77
2021/03/24 04:11:52;;;;;;;27.53;14.87;;;;;;;;;;6130221;23;20571;-76
2021/03/24 04:14:20;;;;;;;17.27;12.80;;;;;;;;;;6129847;23;20170;-76
2021/03/24 04:16:46;;;;;;;19.57;12.47;;;;;;;;;;6129434;23;20206;-76
2021/03/24 04:19:15;;;;;;;19.17;13.27;;;;;;;;;;6128820;23;20174;-76
2021/03/24 04:21:43;;;;;;;19.07;12.67;;;;;;;;;;6130084;23;20556;-77
2021/03/24 04:24:12;;;;;;;20.97;12.70;;;;;;;;;;6129343;23;20186;-76
2021/03/24 04:26:41;;;;;;;17.13;12.30;;;;;;;;;;6129876;23;20178;-76
2021/03/24 04:29:11;;;;;;;16.33;11.87;;;;;;;;;;6129840;23;20174;-76
2021/03/24 04:31:41;;;;;;;14.90;12.07;;;;;;;;;;6104136;23;20174;-76
2021/03/24 04:34:07;;;;;;;18.23;12.47;;;;;;;;;;6129158;23;20744;-76
2021/03/24 04:36:35;;;;;;;16.43;11.83;;;;;;;;;;6130124;23;20174;-76
2021/03/24 04:39:04;;;;;;;17.37;11.70;;;;;;;;;;6128925;23;20174;-76
2021/03/24 04:41:32;;;;;;;18.13;12.27;;;;;;;;;;6129755;23;20185;-76
2021/03/24 04:44:01;;;;;;;17.43;12.77;;;;;;;;;;6129529;23;20190;-77
2021/03/24 04:46:30;;;;;;;19.63;12.47;;;;;;;;;;6129656;23;20253;-77
2021/03/24 04:48:57;;;;;;;22.07;12.40;;;;;;;;;;6129461;23;20252;-75
2021/03/24 04:51:25;;;;;;;18.47;12.67;;;;;;;;;;6129452;23;20174;-77
2021/03/24 04:53:53;;;;;;;16.53;12.37;;;;;;;;;;6129433;23;20170;-77
2021/03/24 04:56:20;;;;;;;20.53;13.17;;;;;;;;;;6129659;23;20747;-77
2021/03/24 04:58:47;;;;;;;24.33;15.13;;;;;;;;;;6129926;23;20274;-76
2021/03/24 05:01:15;;;;;;;28.23;15.20;;;;;;;;;;6129795;23;20174;-76
2021/03/24 05:03:43;;;;;;;27.57;17.77;;;;;;;;;;6128625;23;20197;-76
2021/03/24 05:06:15;;;;;;;28.03;20.27;;;;;;;;;;6129456;23;20175;-75
2021/03/24 05:08:42;;;;;;;30.47;19.30;;;;;;;;;;6129541;23;20178;-76
2021/03/24 05:11:13;;;;;;;26.17;18.70;;;;;;;;;;6102648;23;20173;-76
2021/03/24 05:13:40;;;;;;;24.43;17.30;;;;;;;;;;6129081;23;20181;-76
2021/03/24 05:16:07;;;;;;;20.87;16.53;;;;;;;;;;6128190;23;20860;-77
2021/03/24 05:18:34;;;;;;;25.20;16.73;;;;;;;;;;6128859;23;20187;-79
2021/03/24 05:21:03;;;;;;;23.70;15.53;;;;;;;;;;6128757;23;20225;-76
2021/03/24 05:23:30;;;;;;;24.50;15.67;;;;;;;;;;6129406;23;20225;-76
2021/03/24 05:25:57;;;;;;;23.63;15.63;;;;;;;;;;6129069;23;20177;-78
2021/03/24 05:28:27;;;;;;;23.53;14.80;;;;;;;;;;6129515;23;20174;-76
2021/03/24 05:30:54;;;;;;;24.10;15.30;;;;;;;;;;6129499;23;20174;-76
2021/03/24 05:33:22;;;;;;;22.53;14.23;;;;;;;;;;6129423;23;20177;-78
2021/03/24 05:35:53;;;;;;;22.60;15.20;;;;;;;;;;6129357;23;20173;-77
2021/03/24 05:38:22;;;;;;;20.73;14.23;;;;;;;;;;6129237;23;20432;-75
2021/03/24 05:40:54;;;;;;;21.67;13.70;;;;;;;;;;6128191;23;20178;-76
2021/03/24 05:43:28;;;;;;;19.37;14.33;;;;;;;;;;6129149;23;20197;-77
2021/03/24 05:45:57;;;;;;;22.90;15.53;;;;;;;;;;6129388;23;20181;-75
2021/03/24 05:48:29;;;;;;;22.53;15.20;;;;;;;;;;6129190;23;20173;-78
2021/03/24 05:51:02;;;;;;;24.53;15.57;;;;;;;;;;6128432;23;20628;-77
2021/03/24 05:53:36;;;;;;;20.33;15.67;;;;;;;;;;6129206;23;20185;-75
2021/03/24 05:56:09;;;;;;;23.70;15.70;;;;;;;;;;6127705;23;20437;-75
2021/03/24 05:58:41;;;;;;;25.80;16.83;;;;;;;;;;6128975;23;20181;-77
2021/03/24 06:01:10;;;;;;;22.70;15.83;;;;;;;;;;6128844;23;20173;-76
2021/03/24 06:03:47;;;;;;;22.47;15.50;;;;;;;;;;6128619;23;20201;-75
2021/03/24 06:06:23;;;;;;;22.90;15.00;;;;;;;;;;6129093;23;20186;-75
2021/03/24 06:09:10;;;;;;;22.30;16.33;;;;;;;;;;6129365;23;20181;-75
2021/03/24 06:11:50;;;;;;;24.77;16.33;;;;;;;;;;6092085;23;20182;-77
2021/03/24 06:14:30;;;;;;;22.37;15.60;;;;;;;;;;6129057;23;20237;-76
2021/03/24 06:17:15;;;;;;;21.10;15.87;;;;;;;;;;6128237;23;20260;-76
2021/03/24 06:19:46;;;;;;;19.60;15.10;;;;;;;;;;6128952;23;20178;-77
2021/03/24 06:22:22;;;;;;;25.33;17.37;;;;;;;;;;6128552;23;20178;-76
2021/03/24 06:24:51;;;;;;;26.00;17.13;;;;;;;;;;6128787;23;20245;-76
2021/03/24 06:27:31;;;;;;;24.70;16.67;;;;;;;;;;6128264;23;20448;-77
2021/03/24 06:30:14;;;;;;;27.73;17.87;;;;;;;;;;6129156;23;20174;-77
2021/03/24 06:32:50;;;;;;;25.10;16.83;;;;;;;;;;6128510;23;20177;-75
2021/03/24 06:35:22;;;;;;;27.03;18.57;;;;;;;;;;6128482;23;20217;-75
2021/03/24 06:37:56;;;;;;;31.70;17.63;;;;;;;;;;6128736;23;20418;-78
2021/03/24 06:40:33;;;;;;;29.63;18.67;;;;;;;;;;6128393;23;20480;-77
2021/03/24 06:43:06;;;;;;;28.00;18.80;;;;;;;;;;6127922;23;20181;-78
2021/03/24 06:45:41;;;;;;;27.57;17.63;;;;;;;;;;6127904;23;20198;-77
2021/03/24 06:48:13;;;;;;;28.03;18.73;;;;;;;;;;6127893;23;20217;-75
2021/03/24 06:50:58;;;;;;;34.20;18.83;;;;;;;;;;6127443;23;20185;-76
2021/03/24 06:53:41;;;;;;;25.93;17.47;;;;;;;;;;6127934;23;20209;-76
2021/03/24 06:56:17;;;;;;;32.23;18.73;;;;;;;;;;6128032;23;20556;-76
2021/03/24 06:59:00;;;;;;;25.90;18.10;;;;;;;;;;6130533;23;20182;-78
2021/03/24 07:01:40;;;;;;;28.23;18.30;;;;;;;;;;6129509;23;20252;-79
2021/03/24 07:04:30;;;;;;;30.63;18.57;;;;;;;;;;6130623;23;20189;-78
2021/03/24 07:07:04;;;;;;;25.13;17.80;;;;;;;;;;6131169;23;20391;-77
2021/03/24 07:09:34;;;;;;;26.83;18.20;;;;;;;;;;6130866;23;20178;-79
2021/03/24 07:12:04;;;;;;;27.67;18.77;;;;;;;;;;6104408;23;20621;-79
2021/03/24 07:14:48;;;;;;;26.57;17.83;;;;;;;;;;6130900;23;20482;-75
2021/03/24 07:17:29;;;;;;;25.50;18.13;;;;;;;;;;6130206;23;20249;-78
2021/03/24 07:20:04;;;;;;;26.33;18.47;;;;;;;;;;6126681;23;20178;-78
2021/03/24 07:22:37;;;;;;;27.50;18.57;;;;;;;;;;6130895;23;20188;-78
2021/03/24 07:25:18;;;;;;;27.20;18.37;;;;;;;;;;6129812;23;20664;-75
2021/03/24 07:27:55;;;;;;;24.30;17.50;;;;;;;;;;6128630;23;20173;-76
2021/03/24 07:30:39;;;;;;;25.90;17.73;;;;;;;;;;6130518;23;20178;-75
2021/03/24 07:33:09;;;;;;;23.70;17.73;;;;;;;;;;6129623;23;20178;-76
2021/03/24 07:35:39;;;;;;;25.90;17.50;;;;;;;;;;6130562;23;20170;-78
2021/03/24 07:38:24;;;;;;;27.03;17.70;;;;;;;;;;6130220;23;20174;-77
2021/03/24 07:41:21;;;;;;;24.60;17.43;;;;;;;;;;6130038;23;20178;-76
2021/03/24 07:43:57;;;;;;;25.60;17.43;;;;;;;;;;6129841;23;20186;-78
2021/03/24 07:46:40;;;;;;;26.80;17.87;;;;;;;;;;6130130;23;20466;-76
2021/03/24 07:49:24;;;;;;;25.00;16.90;;;;;;;;;;6130053;23;20627;-78
2021/03/24 07:52:04;;;;;;;24.67;17.00;;;;;;;;;;6130257;23;20178;-77
2021/03/24 07:54:33;;;;;;;21.97;15.23;;;;;;;;;;6130532;23;20174;-76
2021/03/24 07:57:05;;;;;;;22.00;15.93;;;;;;;;;;6129282;23;20174;-79
2021/03/24 07:59:34;;;;;;;24.33;16.47;;;;;;;;;;6130352;23;20174;-77
2021/03/24 08:02:18;;;;;;;24.87;15.80;;;;;;;;;;6130233;23;20174;-76
2021/03/24 08:04:57;;;;;;;23.63;15.77;;;;;;;;;;6130146;23;20189;-77
2021/03/24 08:07:33;;;;;;;23.50;16.17;;;;;;;;;;6129484;23;20180;-77
2021/03/24 08:10:07;;;;;;;22.77;16.37;;;;;;;;;;6130253;23;20173;-77
2021/03/24 08:12:42;;;;;;;24.23;17.37;;;;;;;;;;6129600;23;20174;-75
2021/03/24 08:15:20;;;;;;;22.37;16.03;;;;;;;;;;6130467;23;20220;-76
2021/03/24 08:17:52;;;;;;;22.00;16.40;;;;;;;;;;6129188;23;20236;-76
2021/03/24 08:20:35;;;;;;;23.97;17.10;;;;;;;;;;6130082;23;20174;-75
2021/03/24 08:23:15;;;;;;;21.63;16.13;;;;;;;;;;6129954;23;20174;-76
2021/03/24 08:25:46;;;;;;;22.27;16.30;;;;;;;;;;6130023;23;20564;-74
2021/03/24 08:28:16;;;;;;;23.07;16.43;;;;;;;;;;6129430;23;20238;-75
2021/03/24 08:31:04;;;;;;;26.27;15.90;;;;;;;;;;6129937;23;20177;-76
2021/03/24 08:33:47;;;;;;;22.30;15.70;;;;;;;;;;6129672;23;20282;-76
2021/03/24 08:36:26;;;;;;;25.13;16.80;;;;;;;;;;6129596;23;20182;-76
2021/03/24 08:39:14;;;;;;;21.57;15.97;;;;;;;;;;6129411;23;20559;-77
2021/03/24 08:42:13;;;;;;;25.83;16.30;;;;;;;;;;6129375;23;20202;-76
2021/03/24 08:44:44;;;;;;;19.97;15.27;;;;;;;;;;6129675;23;20189;-78
2021/03/24 08:47:13;;;;;;;22.33;14.63;;;;;;;;;;6129693;23;20221;-78
2021/03/24 08:49:44;;;;;;;20.10;15.13;;;;;;;;;;6129692;23;20189;-77
2021/03/24 08:52:20;;;;;;;19.67;14.87;;;;;;;;;;6129040;23;20174;-79
2021/03/24 08:55:02;;;;;;;22.50;14.17;;;;;;;;;;6128786;23;20193;-79
2021/03/24 08:57:38;;;;;;;18.57;13.90;;;;;;;;;;6128782;23;20209;-80
2021/03/24 09:00:11;;;;;;;20.53;15.10;;;;;;;;;;6129150;23;20174;-78
2021/03/24 09:02:40;;;;;;;24.27;15.17;;;;;;;;;;6129286;23;20178;-78
2021/03/24 09:05:12;;;;;;;20.83;15.13;;;;;;;;;;6128889;23;20652;-82
2021/03/24 09:07:55;;;;;;;19.43;14.97;;;;;;;;;;6129755;23;20178;-78
2021/03/24 09:10:38;;;;;;;20.53;14.53;;;;;;;;;;6128989;23;20174;-78
2021/03/24 09:13:06;;;;;;;24.07;16.53;;;;;;;;;;6084634;23;20232;-80
2021/03/24 09:15:36;;;;;;;17.50;13.97;;;;;;;;;;6128936;23;20175;-79
2021/03/24 09:18:08;;;;;;;21.13;14.40;;;;;;;;;;6129441;23;20182;-79
2021/03/24 09:21:07;;;;;;;19.27;14.17;;;;;;;;;;6128722;23;20178;-77
2021/03/24 09:23:54;;;;;;;19.67;14.73;;;;;;;;;;6040342;23;20673;-78
2021/03/24 09:26:31;;;;;;;19.00;14.83;;;;;;;;;;6039393;23;20293;-78
2021/03/24 09:29:06;;;;;;;18.47;13.67;;;;;;;;;;6098514;23;20424;-77
2021/03/24 09:32:02;;;;;;;19.50;14.07;;;;;;;;;;6103309;23;20174;-76
2021/03/24 09:34:35;;;;;;;21.07;14.53;;;;;;;;;;6040211;23;20232;-77
2021/03/24 09:37:03;;;;;;;18.20;14.40;;;;;;;;;;6111349;23;20180;-77
2021/03/24 09:39:32;;;;;;;16.97;13.63;;;;;;;;;;6129677;23;20174;-78
2021/03/24 09:42:00;;;;;;;17.23;14.27;;;;;;;;;;6128588;23;20174;-78
2021/03/24 09:44:30;;;;;;;15.33;13.60;;;;;;;;;;6128776;23;20194;-76
2021/03/24 09:46:57;;;;;;;17.87;13.93;;;;;;;;;;6129008;23;20182;-75
2021/03/24 09:49:25;;;;;;;18.57;14.63;;;;;;;;;;6129040;23;20181;-76
2021/03/24 09:51:56;;;;;;;21.97;13.73;;;;;;;;;;6129329;23;20174;-76
2021/03/24 09:54:24;;;;;;;18.10;13.73;;;;;;;;;;6129055;23;20170;-76
2021/03/24 09:56:58;;;;;;;18.80;14.70;;;;;;;;;;6128344;23;20174;-76
2021/03/24 09:59:28;;;;;;;17.73;14.17;;;;;;;;;;6102957;23;20197;-76
2021/03/24 10:02:00;;;;;;;19.50;14.70;;;;;;;;;;6128416;23;20985;-77
2021/03/24 10:04:36;;;;;;;16.80;14.20;;;;;;;;;;6128966;23;20194;-76
2021/03/24 10:07:05;;;;;;;16.13;14.20;;;;;;;;;;6127864;23;20178;-77
2021/03/24 10:09:35;;;;;;;19.30;14.90;;;;;;;;;;6128999;23;20178;-78
2021/03/24 10:12:06;;;;;;;17.97;14.53;;;;;;;;;;6128202;23;20174;-76
2021/03/24 10:14:35;;;;;;;18.73;15.13;;;;;;;;;;6129245;23;20176;-78
2021/03/24 10:17:05;;;;;;;20.77;14.83;;;;;;;;;;6128131;23;20202;-78
2021/03/24 10:19:33;;;;;;;20.43;15.03;;;;;;;;;;6129139;23;20174;-75
2021/03/24 10:22:01;;;;;;;19.50;14.83;;;;;;;;;;6128494;23;20181;-77
2021/03/24 10:24:29;;;;;;;17.27;14.20;;;;;;;;;;6128860;23;20201;-77
2021/03/24 10:26:57;;;;;;;22.00;14.53;;;;;;;;;;6128067;23;20174;-77
2021/03/24 10:29:24;;;;;;;18.23;13.83;;;;;;;;;;6129261;23;20177;-80
2021/03/24 10:31:52;;;;;;;17.23;14.10;;;;;;;;;;6128468;23;20181;-78
2021/03/24 10:34:20;;;;;;;24.80;14.40;;;;;;;;;;6129337;23;20178;-77
2021/03/24 10:36:51;;;;;;;20.77;14.10;;;;;;;;;;6128485;23;20552;-76
2021/03/24 10:39:22;;;;;;;20.30;15.43;;;;;;;;;;6129077;23;20178;-75
2021/03/24 10:41:52;;;;;;;17.70;14.03;;;;;;;;;;6128545;23;20178;-75
2021/03/24 10:44:21;;;;;;;16.57;13.83;;;;;;;;;;6103132;23;20221;-78
2021/03/24 10:46:57;;;;;;;19.70;14.60;;;;;;;;;;6128756;23;20174;-78
2021/03/24 10:49:27;;;;;;;17.57;13.83;;;;;;;;;;6128937;23;20173;-77
2021/03/24 10:51:57;;;;;;;15.53;12.90;;;;;;;;;;6128247;23;20174;-78
2021/03/24 10:54:25;;;;;;;14.57;12.97;;;;;;;;;;6128754;23;20181;-78
2021/03/24 10:56:59;;;;;;;15.73;13.13;;;;;;;;;;6128195;23;20178;-79
2021/03/24 10:59:29;;;;;;;17.50;12.47;;;;;;;;;;6129190;23;20173;-78
2021/03/24 11:01:59;;;;;;;15.03;12.33;;;;;;;;;;6128694;23;20178;-79
2021/03/24 11:04:34;;;;;;;14.17;11.50;;;;;;;;;;6128674;23;20189;-82
2021/03/24 11:07:03;;;;;;;14.77;11.27;;;;;;;;;;6127633;23;20177;-80
2021/03/24 11:09:37;;;;;;;15.80;11.27;;;;;;;;;;6129068;23;20181;-81
2021/03/24 11:12:05;;;;;;;12.33;10.73;;;;;;;;;;6101805;23;20174;-83
2021/03/24 11:14:34;;;;;;;13.53;9.67;;;;;;;;;;6129119;23;20174;-80
2021/03/24 11:17:06;;;;;;;18.77;11.07;;;;;;;;;;6127629;23;20453;-79
2021/03/24 11:19:35;;;;;;;14.53;11.20;;;;;;;;;;6128949;23;20205;-79
2021/03/24 11:22:10;;;;;;;13.47;10.10;;;;;;;;;;6127416;23;20197;-80
2021/03/24 11:24:43;;;;;;;11.53;10.27;;;;;;;;;;6128887;23;20186;-81
2021/03/24 11:27:14;;;;;;;14.43;10.63;;;;;;;;;;6128307;23;20174;-80
2021/03/24 11:29:49;;;;;;;14.73;11.20;;;;;;;;;;6128739;23;20443;-79
2021/03/24 11:32:21;;;;;;;15.40;11.60;;;;;;;;;;6127250;23;20432;-80
2021/03/24 11:34:52;;;;;;;12.40;11.10;;;;;;;;;;6103128;23;20484;-79
2021/03/24 11:37:33;;;;;;;14.30;10.63;;;;;;;;;;6128124;23;20178;-79
2021/03/24 11:40:07;;;;;;;14.30;10.23;;;;;;;;;;6128229;23;20178;-80
2021/03/24 11:42:34;;;;;;;18.70;10.80;;;;;;;;;;6128784;23;20212;-80
2021/03/24 11:45:08;;;;;;;15.63;10.57;;;;;;;;;;6104523;23;20190;-80
2021/03/24 11:47:45;;;;;;;12.70;11.00;;;;;;;;;;6130217;23;20181;-80
2021/03/24 11:50:15;;;;;;;13.50;10.93;;;;;;;;;;6130336;23;20178;-80
2021/03/24 11:52:46;;;;;;;13.37;10.27;;;;;;;;;;6129289;23;20532;-80
2021/03/24 11:55:27;;;;;;;16.27;11.83;;;;;;;;;;6130246;23;20174;-80
2021/03/24 11:57:55;;;;;;;16.00;11.23;;;;;;;;;;6111882;23;20560;-81
2021/03/24 12:00:31;;;;;;;17.07;10.87;;;;;;;;;;6130355;23;20189;-81
2021/03/24 12:03:04;;;;;;;18.60;11.47;;;;;;;;;;6128605;23;20178;-79
2021/03/24 12:05:33;;;;;;;14.30;10.83;;;;;;;;;;6130010;23;20186;-80
2021/03/24 12:08:19;;;;;;;13.40;11.43;;;;;;;;;;6129520;23;20174;-80
2021/03/24 12:10:58;;;;;;;13.57;11.57;;;;;;;;;;6122333;23;20174;-80
2021/03/24 12:13:28;;;;;;;15.00;11.13;;;;;;;;;;6128594;23;20177;-81
2021/03/24 12:15:59;;;;;;;12.60;10.20;;;;;;;;;;6103015;23;20245;-81
2021/03/24 12:18:25;;;;;;;13.87;10.63;;;;;;;;;;6129047;23;20544;-81
2021/03/24 12:20:58;;;;;;;11.77;10.57;;;;;;;;;;6129044;23;20181;-81
2021/03/24 12:23:25;;;;;;;13.03;11.03;;;;;;;;;;6129007;23;20178;-80
2021/03/24 12:25:53;;;;;;;13.47;10.67;;;;;;;;;;6128861;23;20190;-80
2021/03/24 12:28:28;;;;;;;11.87;10.37;;;;;;;;;;6128838;23;20185;-80
2021/03/24 12:31:02;;;;;;;13.03;9.90;;;;;;;;;;6128951;23;20559;-81
2021/03/24 12:33:28;;;;;;;11.70;9.90;;;;;;;;;;6128811;23;20185;-80
2021/03/24 12:36:04;;;;;;;14.30;10.10;;;;;;;;;;6128414;23;20582;-80
2021/03/24 12:38:38;;;;;;;16.20;10.77;;;;;;;;;;6127836;23;20484;-79
2021/03/24 12:41:04;;;;;;;13.03;10.53;;;;;;;;;;6128892;23;20200;-79
2021/03/24 12:43:31;;;;;;;12.73;10.37;;;;;;;;;;6128953;23;20552;-80
2021/03/24 12:46:06;;;;;;;14.27;11.20;;;;;;;;;;6103004;23;20189;-79
2021/03/24 12:48:35;;;;;;;14.57;11.07;;;;;;;;;;6128741;23;20206;-80
2021/03/24 12:51:05;;;;;;;15.10;10.53;;;;;;;;;;6128915;23;20174;-80
2021/03/24 12:53:38;;;;;;;11.73;10.27;;;;;;;;;;6128228;23;20174;-81
2021/03/24 12:56:21;;;;;;;16.37;10.87;;;;;;;;;;6128821;23;20201;-81
2021/03/24 12:58:49;;;;;;;11.73;9.33;;;;;;;;;;6113938;23;20339;-81
2021/03/24 13:01:22;;;;;;;15.93;9.73;;;;;;;;;;6103358;23;20560;-81
2021/03/24 13:04:04;;;;;;;17.90;9.33;;;;;;;;;;6128322;23;20186;-81
2021/03/24 13:06:42;;;;;;;13.43;10.20;;;;;;;;;;6128710;23;20192;-81
2021/03/24 13:09:15;;;;;;;12.63;9.30;;;;;;;;;;6128312;23;20178;-81
2021/03/24 13:11:45;;;;;;;13.00;10.00;;;;;;;;;;6129148;23;20574;-84
2021/03/24 13:14:41;;;;;;;11.83;9.83;;;;;;;;;;6129585;23;20185;-78
2021/03/24 13:17:13;;;;;;;11.57;10.33;;;;;;;;;;6011874;23;20205;-82
2021/03/24 13:19:41;;;;;;;14.37;10.70;;;;;;;;;;6081623;23;20716;-85
2021/03/24 13:22:11;;;;;;;11.38;9.32;;;;;;;;;;6098361;23;20175;-85
2021/03/24 13:24:45;;;;;;;10.20;9.15;;;;;;;;;;6098501;23;20175;-81
2021/03/24 13:27:24;;;;;;;12.70;10.10;;;;;;;;;;6099940;23;20182;-79
2021/03/24 13:29:54;;;;;;;11.73;9.85;;;;;;;;;;6100486;23;20182;-80
2021/03/24 13:32:25;;;;;;;13.10;10.48;;;;;;;;;;6099467;23;20205;-81
2021/03/24 13:34:56;;;;;;;10.90;9.75;;;;;;;;;;6099667;23;20183;-78
2021/03/24 13:37:25;;;;;;;13.05;9.45;;;;;;;;;;6100336;23;20560;-80
2021/03/24 13:39:53;;;;;;;10.43;9.25;;;;;;;;;;6100062;23;20175;-81
2021/03/24 13:42:22;;;;;;;12.10;9.20;;;;;;;;;;6100213;23;20433;-78
2021/03/24 13:44:51;;;;;;;11.73;9.23;;;;;;;;;;6099861;23;20179;-81
2021/03/24 13:47:18;;;;;;;10.45;8.95;;;;;;;;;;6099477;23;20179;-80
2021/03/24 13:49:48;;;;;;;15.50;9.10;;;;;;;;;;6099769;23;20437;-82
2021/03/24 13:52:32;;;;;;;26.15;10.52;;;;;;;;;;6100146;23;20179;-78
2021/03/24 13:55:03;;;;;;;15.25;10.27;;;;;;;;;;6100110;23;20178;-80
2021/03/24 13:57:35;;;;;;;12.95;9.70;;;;;;;;;;6098637;23;20615;-80
2021/03/24 14:00:07;;;;;;;22.30;9.45;;;;;;;;;;6099201;23;20466;-81
2021/03/24 14:02:39;;;;;;;11.63;9.35;;;;;;;;;;6099982;23;20442;-81
2021/03/24 14:05:13;;;;;;;10.82;9.75;;;;;;;;;;6099820;23;20201;-81
2021/03/24 14:07:53;;;;;;;17.33;10.38;;;;;;;;;;6099541;23;20178;-82
2021/03/24 14:10:26;;;;;;;12.48;9.07;;;;;;;;;;6100093;23;20174;-80
2021/03/24 14:13:11;;;;;;;54.63;10.70;;;;;;;;;;6099049;23;20182;-80
2021/03/24 14:15:43;;;;;;;15.25;9.48;;;;;;;;;;6100564;23;20171;-81
2021/03/24 14:18:16;;;;;;;9.82;8.82;;;;;;;;;;6127618;23;20174;-79
2021/03/24 14:20:50;;;;;;;10.85;9.70;;;;;;;;;;6128926;23;21229;-78
2021/03/24 14:23:22;;;;;;;10.68;9.48;;;;;;;;;;6129331;23;20185;-84
2021/03/24 14:25:56;;;;;;;9.82;8.50;;;;;;;;;;6129069;23;20448;-78
2021/03/24 14:28:30;;;;;;;8.98;8.07;;;;;;;;;;6128299;23;20588;-77
2021/03/24 14:31:15;;;;;;;10.90;9.30;;;;;;;;;;6127963;23;20182;-78
2021/03/24 14:33:42;;;;;;;9.52;8.30;;;;;;;;;;6127035;23;20178;-79
2021/03/24 14:36:10;;;;;;;9.43;8.40;;;;;;;;;;6128080;23;20178;-77
2021/03/24 14:38:51;;;;;;;10.38;8.45;;;;;;;;;;6126843;23;20453;-77
2021/03/24 14:41:23;;;;;;;9.68;8.68;;;;;;;;;;6103884;23;20178;-77
2021/03/24 14:44:00;;;;;;;11.05;8.30;;;;;;;;;;6127362;23;20174;-77